Time;durP1;ratioP1;P1;durP2;ratioP2;P2;SDS_P1;SDS_P2;PMS_P1;PMS_P2;Temp;Humidity;BMP_temperature;BMP_pressure;BME280_temperature;BME280_humidity;BME280_pressure;Samples;Min_cycle;Max_cycle;Signal;HPM_P1;HPM_P2
2022/06/30 00:00:08;;;;;;;22.10;18.98;;;;;;;18.02;90.61;100997.75;5045890;28;20443;-69
2022/06/30 00:02:33;;;;;;;22.52;18.38;;;;;;;18.05;89.80;100998.03;5035746;28;20045;-69
2022/06/30 00:04:58;;;;;;;20.85;18.77;;;;;;;18.04;89.09;100990.78;5043467;28;20024;-70
2022/06/30 00:07:24;;;;;;;22.33;18.70;;;;;;;18.05;89.23;100995.28;5045947;28;20691;-69
2022/06/30 00:09:49;;;;;;;20.90;18.65;;;;;;;18.03;90.34;100993.84;5045864;28;20032;-69
2022/06/30 00:12:14;;;;;;;20.33;18.23;;;;;;;17.99;88.97;101001.91;5043492;28;20033;-69
2022/06/30 00:14:40;;;;;;;20.25;17.85;;;;;;;18.01;90.35;100996.09;5045398;28;20183;-70
2022/06/30 00:17:06;;;;;;;22.17;17.85;;;;;;;18.00;90.22;100984.16;5044414;28;20020;-69
2022/06/30 00:19:33;;;;;;;18.77;16.80;;;;;;;17.97;90.81;100990.25;5043752;28;20432;-70
2022/06/30 00:21:58;;;;;;;20.40;17.75;;;;;;;17.92;89.74;100990.25;5044788;28;20500;-69
2022/06/30 00:24:24;;;;;;;21.38;17.23;;;;;;;17.91;90.60;100980.25;5045330;28;20021;-70
2022/06/30 00:26:49;;;;;;;20.15;17.85;;;;;;;17.93;90.22;100971.63;5044765;28;20025;-70
2022/06/30 00:29:14;;;;;;;21.02;17.30;;;;;;;17.91;90.46;100977.47;5044760;28;20021;-69
2022/06/30 00:31:40;;;;;;;21.25;17.67;;;;;;;17.90;90.32;100973.03;5045336;28;20020;-68
2022/06/30 00:34:05;;;;;;;20.60;17.13;;;;;;;17.93;90.59;100968.84;5044898;28;20029;-69
2022/06/30 00:36:30;;;;;;;18.90;16.88;;;;;;;17.92;90.18;100964.41;5045737;28;20124;-69
2022/06/30 00:38:56;;;;;;;19.50;16.60;;;;;;;17.92;90.41;100967.19;5044283;28;20389;-69
2022/06/30 00:41:21;;;;;;;19.95;17.48;;;;;;;17.88;89.83;100961.34;5045784;28;21314;-69
2022/06/30 00:43:47;;;;;;;20.10;17.40;;;;;;;17.81;89.23;100969.94;5042212;28;20035;-69
2022/06/30 00:46:14;;;;;;;20.30;17.65;;;;;;;17.82;89.54;100960.50;5043278;28;20025;-69
2022/06/30 00:48:40;;;;;;;20.60;17.83;;;;;;;17.79;89.31;100966.63;5044857;28;20025;-70
2022/06/30 00:51:06;;;;;;;19.33;16.60;;;;;;;17.76;89.70;100967.16;5045263;28;20047;-68
2022/06/30 00:53:35;;;;;;;20.02;16.30;;;;;;;17.75;89.78;100970.22;5044049;28;20033;-69
2022/06/30 00:56:03;;;;;;;18.15;16.27;;;;;;;17.78;89.81;100959.38;5043172;28;20641;-69
2022/06/30 00:58:29;;;;;;;23.30;17.63;;;;;;;17.75;88.28;100964.69;5043520;28;20446;-69
2022/06/30 01:00:56;;;;;;;19.38;17.27;;;;;;;17.75;88.04;100965.50;5042534;28;20025;-69
2022/06/30 01:03:22;;;;;;;21.92;18.30;;;;;;;17.74;89.18;100966.63;5042698;28;20053;-69
2022/06/30 01:05:47;;;;;;;20.83;18.30;;;;;;;17.76;88.03;100971.88;5045180;28;20029;-69
2022/06/30 01:08:16;;;;;;;21.55;17.60;;;;;;;17.77;88.93;100979.09;5068570;22;20464;-69
2022/06/30 01:13:25;;;;;;;22.05;19.50;;;;;;;17.88;87.83;100964.13;5100753;28;20034;-69
2022/06/30 01:15:51;;;;;;;21.35;18.08;;;;;;;17.86;89.40;100966.34;5086365;28;20020;-69
2022/06/30 01:18:16;;;;;;;21.73;19.38;;;;;;;17.85;88.57;100975.78;5094627;28;20042;-69
2022/06/30 01:20:41;;;;;;;23.73;19.17;;;;;;;17.91;88.95;100968.28;5110359;27;20032;-69
2022/06/30 01:23:07;;;;;;;24.02;19.33;;;;;;;17.93;87.90;100978.00;5101320;28;20004;-69
2022/06/30 01:25:35;;;;;;;22.60;20.20;;;;;;;17.96;87.48;100968.31;5103511;28;20096;-69
2022/06/30 01:28:00;;;;;;;24.50;19.00;;;;;;;17.96;88.09;100976.63;5109700;28;20028;-70
2022/06/30 01:30:26;;;;;;;23.63;20.40;;;;;;;17.93;87.16;100971.63;5087970;28;20353;-69
2022/06/30 01:32:51;;;;;;;22.35;19.95;;;;;;;17.89;88.33;100974.09;5088365;28;20047;-67
2022/06/30 01:35:17;;;;;;;26.50;19.90;;;;;;;17.88;87.62;100969.66;5088031;28;20405;-69
2022/06/30 01:37:58;;;;;;;21.45;19.25;;;;;;;17.87;87.93;100984.69;5088497;28;20434;-69
2022/06/30 01:40:30;;;;;;;23.48;19.73;;;;;;;17.73;88.44;100984.38;5105035;28;20039;-70
2022/06/30 01:42:55;;;;;;;21.17;18.77;;;;;;;17.71;88.97;100986.56;5107567;28;20072;-69
2022/06/30 01:45:21;;;;;;;23.45;19.00;;;;;;;17.62;89.49;100983.50;5091997;28;20028;-69
2022/06/30 01:47:47;;;;;;;22.70;19.35;;;;;;;17.56;89.77;100986.53;5106622;28;20019;-70
2022/06/30 01:50:18;;;;;;;23.23;18.65;;;;;;;17.52;90.18;100982.63;5107423;28;20106;-69
2022/06/30 01:52:44;;;;;;;20.25;17.70;;;;;;;17.55;90.91;100984.88;5101911;28;20028;-69
2022/06/30 01:55:11;;;;;;;20.20;17.77;;;;;;;17.47;90.51;100983.44;5101200;28;20027;-70
2022/06/30 01:57:37;;;;;;;21.55;16.92;;;;;;;17.43;91.20;100979.53;5106593;27;20074;-71
2022/06/30 02:00:05;;;;;;;22.05;18.90;;;;;;;17.37;90.56;100984.25;5088276;28;20460;-69
2022/06/30 02:02:30;;;;;;;21.08;18.23;;;;;;;17.41;90.72;100975.38;5100502;28;20034;-69
2022/06/30 02:04:56;;;;;;;20.55;17.55;;;;;;;17.38;90.42;100987.84;5087787;28;20020;-68
2022/06/30 02:07:23;;;;;;;20.60;16.33;;;;;;;17.32;90.21;100989.78;5087513;28;20058;-69
2022/06/30 02:09:51;;;;;;;18.58;16.50;;;;;;;17.32;90.48;100994.50;5108755;28;20047;-69
2022/06/30 02:15:01;;;;;;;24.75;21.52;;;;;;;17.23;90.32;100990.59;5090972;28;20097;-69
2022/06/30 02:17:26;;;;;;;25.33;22.27;;;;;;;17.17;90.01;100995.28;5093901;28;20032;-69
2022/06/30 02:19:51;;;;;;;24.08;20.75;;;;;;;17.17;89.97;100997.22;5108133;28;20066;-68
2022/06/30 02:22:17;;;;;;;25.52;21.13;;;;;;;17.10;90.53;100998.31;5104933;28;20073;-69
2022/06/30 02:24:42;;;;;;;26.83;22.98;;;;;;;17.14;90.33;100995.00;5108821;28;20028;-70
2022/06/30 02:27:07;;;;;;;26.05;23.23;;;;;;;17.14;89.46;100992.22;5108524;28;20340;-70
2022/06/30 02:29:33;;;;;;;24.33;21.15;;;;;;;17.10;90.30;100987.22;5092329;28;20064;-69
2022/06/30 02:31:58;;;;;;;25.05;20.08;;;;;;;17.04;90.49;100991.06;5086404;28;20058;-70
2022/06/30 02:34:24;;;;;;;23.40;19.38;;;;;;;16.94;90.26;100992.97;5092118;28;20034;-69
2022/06/30 02:36:49;;;;;;;25.15;20.20;;;;;;;16.84;90.82;100993.75;5105264;28;20046;-69
2022/06/30 02:39:15;;;;;;;21.92;18.95;;;;;;;16.76;90.83;100997.03;5107885;28;20750;-69
2022/06/30 02:41:40;;;;;;;22.25;19.95;;;;;;;16.75;91.57;100996.19;5108097;28;20049;-69
2022/06/30 02:44:05;;;;;;;25.52;21.33;;;;;;;16.72;91.43;100993.09;5105761;28;20012;-69
2022/06/30 02:46:31;;;;;;;26.48;23.67;;;;;;;16.72;91.41;100993.09;5086491;28;20024;-69
2022/06/30 02:48:56;;;;;;;26.90;22.92;;;;;;;16.73;91.52;100998.41;5085958;28;20035;-69
2022/06/30 02:51:21;;;;;;;24.92;22.23;;;;;;;16.71;91.20;101005.28;5087309;28;20024;-69
2022/06/30 02:53:46;;;;;;;27.17;23.70;;;;;;;16.71;91.25;100992.28;5087861;28;20824;-68
2022/06/30 02:56:12;;;;;;;28.67;25.58;;;;;;;16.75;91.17;100989.81;5089981;28;20012;-67
2022/06/30 02:58:38;;;;;;;32.55;24.63;;;;;;;16.65;91.52;101000.81;5108262;28;20112;-69
2022/06/30 03:01:04;;;;;;;31.98;25.60;;;;;;;16.69;91.57;101002.78;5097332;28;20166;-69
2022/06/30 03:03:29;;;;;;;31.13;27.83;;;;;;;16.68;91.01;100997.50;5093736;28;20099;-69
2022/06/30 03:05:54;;;;;;;29.08;26.05;;;;;;;16.65;91.34;100992.47;5086449;28;20162;-69
2022/06/30 03:08:20;;;;;;;29.58;26.58;;;;;;;16.64;91.51;100990.81;5087365;28;20052;-69
2022/06/30 03:10:45;;;;;;;29.58;26.35;;;;;;;16.62;91.57;100991.06;5087047;28;20015;-70
2022/06/30 03:13:10;;;;;;;32.17;28.70;;;;;;;16.62;91.18;100988.28;5087519;28;20850;-69
2022/06/30 03:15:36;;;;;;;32.38;29.02;;;;;;;16.63;91.91;100997.47;5081384;28;20028;-69
2022/06/30 03:18:01;;;;;;;32.28;28.70;;;;;;;16.59;91.35;100992.44;5085282;28;20028;-69
2022/06/30 03:20:26;;;;;;;32.35;28.20;;;;;;;16.58;92.17;100990.78;5086221;28;20032;-69
2022/06/30 03:22:52;;;;;;;33.40;29.75;;;;;;;16.58;92.09;100990.78;5085720;28;20096;-68
2022/06/30 03:25:17;;;;;;;32.97;29.60;;;;;;;16.57;91.85;100988.25;5086988;28;20019;-69
2022/06/30 03:27:42;;;;;;;30.27;27.05;;;;;;;16.53;91.83;100981.59;5086785;28;20484;-70
2022/06/30 03:30:08;;;;;;;32.83;27.05;;;;;;;16.47;92.77;100983.47;5092659;28;20400;-68
2022/06/30 03:32:33;;;;;;;33.47;29.73;;;;;;;16.46;92.34;100980.97;5086172;28;20029;-69
2022/06/30 03:34:58;;;;;;;30.77;27.63;;;;;;;16.42;93.22;100974.28;5085639;28;20038;-69
2022/06/30 03:37:24;;;;;;;34.65;29.98;;;;;;;16.37;92.96;100977.84;5085758;28;20529;-69
2022/06/30 03:39:49;;;;;;;36.65;30.40;;;;;;;16.31;93.01;100973.38;5086347;28;20040;-68
2022/06/30 03:42:14;;;;;;;35.17;31.20;;;;;;;16.30;93.20;100972.56;5101400;28;20035;-69
2022/06/30 03:44:40;;;;;;;35.42;31.27;;;;;;;16.29;93.53;100975.59;5107536;28;20791;-69
2022/06/30 03:47:05;;;;;;;35.60;31.95;;;;;;;16.27;93.59;100972.25;5098299;28;20024;-69
2022/06/30 03:49:30;;;;;;;35.75;32.03;;;;;;;16.23;93.31;100971.13;5086526;28;20107;-69
2022/06/30 03:51:56;;;;;;;35.88;32.08;;;;;;;16.21;93.95;100968.59;5084839;28;20396;-69
2022/06/30 03:54:21;;;;;;;35.47;31.83;;;;;;;16.21;94.12;100967.78;5085329;28;20031;-69
2022/06/30 03:56:47;;;;;;;35.42;31.90;;;;;;;16.23;93.93;100974.72;5086527;28;20376;-69
2022/06/30 03:59:12;;;;;;;35.97;31.77;;;;;;;16.23;94.12;100968.34;5087992;28;20020;-69
2022/06/30 04:01:38;;;;;;;37.00;33.03;;;;;;;16.26;94.39;100965.88;5086351;28;20044;-69
2022/06/30 04:04:03;;;;;;;37.30;33.25;;;;;;;16.32;93.94;100958.41;5086107;28;20020;-69
2022/06/30 04:06:28;;;;;;;36.55;32.75;;;;;;;16.31;94.22;100956.75;5086395;28;20447;-69
2022/06/30 04:08:54;;;;;;;33.83;30.23;;;;;;;16.34;93.88;100959.00;5083626;28;20048;-70
2022/06/30 04:11:19;;;;;;;34.75;30.80;;;;;;;16.29;93.68;100947.88;5085808;28;20082;-70
2022/06/30 04:13:44;;;;;;;33.17;29.58;;;;;;;16.22;94.31;100956.44;5086658;28;20203;-69
2022/06/30 04:16:10;;;;;;;33.83;30.27;;;;;;;16.20;93.98;100960.56;5093208;28;20020;-70
2022/06/30 04:18:35;;;;;;;35.67;32.08;;;;;;;16.23;94.35;100962.81;5083503;28;20036;-69
2022/06/30 04:21:00;;;;;;;36.83;33.08;;;;;;;16.28;94.64;100960.09;5085703;28;20067;-69
2022/06/30 04:23:26;;;;;;;40.72;36.40;;;;;;;16.32;94.36;100959.28;5085429;28;20098;-70
2022/06/30 04:25:51;;;;;;;40.67;36.38;;;;;;;16.35;94.32;100961.50;5085930;28;20024;-67
2022/06/30 04:28:16;;;;;;;39.15;35.08;;;;;;;16.43;94.03;100959.34;5100302;28;20023;-69
2022/06/30 04:33:25;;;;;;;39.03;33.15;;;;;;;16.59;94.09;100963.88;5084649;28;20506;-69
2022/06/30 04:35:51;;;;;;;39.08;34.55;;;;;;;16.62;93.54;100968.88;5101752;28;20032;-69
2022/06/30 04:38:16;;;;;;;38.25;34.47;;;;;;;16.63;93.87;100965.03;5102410;28;20023;-70
2022/06/30 04:43:25;;;;;;;41.90;37.60;;;;;;;16.73;93.08;100994.78;5106267;28;20031;-70
2022/06/30 04:45:51;;;;;;;39.88;35.67;;;;;;;16.80;91.91;100979.56;5106079;28;20019;-70
2022/06/30 04:48:16;;;;;;;39.67;35.38;;;;;;;16.90;91.12;100978.78;5094366;28;20468;-70
2022/06/30 04:50:42;;;;;;;43.30;35.92;;;;;;;16.94;91.20;100979.94;5100513;28;20434;-67
2022/06/30 04:53:08;;;;;;;38.80;34.83;;;;;;;17.03;90.63;101019.06;5110269;28;20114;-71
2022/06/30 04:55:33;;;;;;;38.55;33.38;;;;;;;17.08;89.85;100991.34;5105587;28;20474;-70
2022/06/30 04:57:59;;;;;;;36.53;32.72;;;;;;;17.13;89.79;100977.50;5096859;28;20558;-70
2022/06/30 05:00:24;;;;;;;35.78;31.90;;;;;;;17.16;90.67;100996.41;5092290;28;20103;-70
2022/06/30 05:02:50;;;;;;;38.45;34.42;;;;;;;17.24;90.22;101026.41;5109482;28;20024;-70
2022/06/30 05:05:15;;;;;;;37.03;33.30;;;;;;;17.25;90.24;100991.16;5089128;28;20019;-70
2022/06/30 05:07:41;;;;;;;37.35;33.65;;;;;;;17.25;90.49;101019.75;5086544;28;20035;-70
2022/06/30 05:10:06;;;;;;;37.60;33.72;;;;;;;17.33;89.83;101007.28;5083065;28;20516;-70
2022/06/30 05:12:32;;;;;;;37.30;33.55;;;;;;;17.31;90.71;100998.41;5088305;28;20036;-69
2022/06/30 05:14:58;;;;;;;36.95;33.42;;;;;;;17.31;91.03;101017.81;5095750;28;20028;-70
2022/06/30 05:17:24;;;;;;;38.15;34.47;;;;;;;17.35;91.01;101007.84;5086703;28;20070;-69
2022/06/30 05:19:49;;;;;;;37.90;34.33;;;;;;;17.37;90.83;101003.69;5088938;28;20097;-70
2022/06/30 05:22:14;;;;;;;39.40;35.67;;;;;;;17.38;91.77;101019.22;5089155;28;20020;-70
2022/06/30 05:27:23;;;;;;;39.67;36.13;;;;;;;17.44;91.08;101000.69;5108647;28;20046;-70
2022/06/30 05:29:49;;;;;;;43.17;39.13;;;;;;;17.45;91.42;100999.56;5106915;28;20123;-70
2022/06/30 05:32:14;;;;;;;41.97;37.83;;;;;;;17.49;91.22;101002.63;5088552;28;20024;-70
2022/06/30 05:34:39;;;;;;;42.75;38.60;;;;;;;17.53;91.44;101006.50;5089397;28;20016;-70
2022/06/30 05:37:05;;;;;;;42.92;38.85;;;;;;;17.57;91.82;101014.03;5088162;28;20430;-70
2022/06/30 05:39:32;;;;;;;43.92;39.63;;;;;;;17.61;92.15;101012.38;5098802;28;20043;-70
2022/06/30 05:41:59;;;;;;;41.92;38.00;;;;;;;17.75;91.38;101009.94;5092043;28;20340;-69
2022/06/30 05:44:25;;;;;;;42.00;38.00;;;;;;;17.82;90.43;101004.13;5109358;28;20035;-70
2022/06/30 05:46:51;;;;;;;43.45;39.35;;;;;;;17.86;89.84;101005.25;5107966;28;20028;-71
2022/06/30 05:49:16;;;;;;;43.17;38.90;;;;;;;17.82;89.98;100998.56;5096609;27;20399;-70
2022/06/30 05:51:41;;;;;;;43.63;39.30;;;;;;;17.87;90.54;101004.13;5107666;28;20028;-69
2022/06/30 05:54:06;;;;;;;44.17;39.67;;;;;;;17.94;90.51;101010.25;5107291;28;20743;-71
2022/06/30 05:56:32;;;;;;;44.60;40.00;;;;;;;18.00;90.42;101005.56;5091353;28;20028;-71
2022/06/30 05:58:57;;;;;;;46.08;41.35;;;;;;;18.05;90.48;101002.78;5088301;28;20031;-69
2022/06/30 06:01:22;;;;;;;43.53;39.13;;;;;;;18.10;90.52;101019.44;5084226;28;20468;-71
2022/06/30 06:03:47;;;;;;;42.70;38.42;;;;;;;18.06;89.60;101016.38;5088929;28;20024;-71
2022/06/30 06:06:13;;;;;;;45.13;40.58;;;;;;;18.07;89.55;101006.94;5085571;28;20095;-70
2022/06/30 06:08:38;;;;;;;42.97;38.67;;;;;;;18.10;89.44;101006.38;5084753;28;20036;-70
2022/06/30 06:11:03;;;;;;;44.15;39.65;;;;;;;18.11;88.72;101012.78;5085797;28;20056;-71
2022/06/30 06:13:29;;;;;;;43.97;39.35;;;;;;;18.18;88.88;101012.50;5088101;28;20451;-70
2022/06/30 06:15:54;;;;;;;42.70;38.17;;;;;;;18.24;88.57;101015.00;5086344;28;20024;-70
2022/06/30 06:18:19;;;;;;;43.67;38.38;;;;;;;18.24;89.34;101016.94;5085805;28;20436;-71
2022/06/30 06:20:45;;;;;;;42.80;38.17;;;;;;;18.26;89.81;101018.34;5086968;28;20024;-70
2022/06/30 06:23:10;;;;;;;40.72;36.53;;;;;;;18.31;89.29;101026.69;5087950;28;20070;-71
2022/06/30 06:25:36;;;;;;;38.40;34.50;;;;;;;18.36;88.58;101023.91;5087703;28;20086;-71
2022/06/30 06:30:45;;;;;;;37.60;33.08;;;;;;;18.47;88.25;101030.28;5087411;28;20488;-70
2022/06/30 06:33:10;;;;;;;35.90;31.42;;;;;;;18.48;86.95;101031.97;5087214;28;20135;-71
2022/06/30 06:35:35;;;;;;;37.28;29.65;;;;;;;18.51;86.08;101028.63;5086318;28;20042;-71
2022/06/30 06:38:01;;;;;;;29.17;25.73;;;;;;;18.52;84.13;101027.50;5086483;28;20377;-70
2022/06/30 06:40:26;;;;;;;29.85;25.15;;;;;;;18.54;84.50;101028.06;5087329;28;20067;-71
2022/06/30 06:42:52;;;;;;;29.13;25.50;;;;;;;18.57;85.80;101027.50;5086300;28;20084;-69
2022/06/30 06:45:17;;;;;;;31.08;26.08;;;;;;;18.62;85.25;101035.00;5086860;28;20039;-69
2022/06/30 06:47:43;;;;;;;30.17;24.55;;;;;;;18.65;84.43;101038.06;5086865;28;20028;-71
2022/06/30 06:50:08;;;;;;;26.88;23.58;;;;;;;18.69;83.24;101035.56;5084466;28;20052;-72
2022/06/30 06:52:34;;;;;;;26.25;21.60;;;;;;;18.73;83.14;101042.25;5086218;28;20400;-71
2022/06/30 06:54:59;;;;;;;27.58;22.17;;;;;;;18.83;84.46;101036.66;5086602;28;20024;-70
2022/06/30 06:57:25;;;;;;;28.48;22.42;;;;;;;18.95;84.85;101049.44;5085986;28;20035;-70
2022/06/30 06:59:50;;;;;;;25.85;21.27;;;;;;;18.99;83.98;101045.81;5086892;28;20036;-72
2022/06/30 07:02:15;;;;;;;29.58;21.15;;;;;;;19.04;83.42;101047.75;5085452;28;20727;-72
2022/06/30 07:04:41;;;;;;;25.40;19.98;;;;;;;19.08;83.23;101052.47;5086459;28;20017;-70
2022/06/30 07:07:06;;;;;;;29.35;20.65;;;;;;;19.14;83.46;101056.91;5086751;28;20020;-72
2022/06/30 07:09:32;;;;;;;24.45;19.33;;;;;;;19.18;84.40;101059.97;5088467;28;20477;-73
2022/06/30 07:11:57;;;;;;;25.08;18.48;;;;;;;19.25;82.45;101065.22;5104223;27;20356;-72
2022/06/30 07:14:22;;;;;;;23.30;18.75;;;;;;;19.31;83.82;101064.94;5107438;28;20035;-72
2022/06/30 07:16:48;;;;;;;26.58;18.63;;;;;;;19.40;83.96;101067.97;5106298;28;20023;-72
2022/06/30 07:19:13;;;;;;;22.50;17.63;;;;;;;19.50;82.17;101070.72;5094370;28;20058;-72
2022/06/30 07:21:38;;;;;;;23.92;16.38;;;;;;;19.55;82.24;101076.25;5086155;28;20684;-72
2022/06/30 07:24:04;;;;;;;23.02;15.15;;;;;;;19.60;80.57;101084.63;5086860;28;20023;-72
2022/06/30 07:26:29;;;;;;;20.15;14.30;;;;;;;19.60;79.38;101087.41;5091813;28;20022;-74
2022/06/30 07:28:54;;;;;;;21.60;14.57;;;;;;;19.61;80.76;101091.84;5079549;28;20016;-73
2022/06/30 07:31:21;;;;;;;19.90;12.82;;;;;;;19.60;80.22;101087.41;5078012;28;20036;-73
2022/06/30 07:33:46;;;;;;;19.58;13.40;;;;;;;19.62;80.26;101095.50;5079318;28;20120;-72
2022/06/30 07:36:12;;;;;;;22.92;14.60;;;;;;;19.67;79.94;101104.69;5081943;28;20024;-71
2022/06/30 07:38:40;;;;;;;19.85;13.70;;;;;;;19.69;80.21;101104.38;5078318;28;20659;-73
2022/06/30 07:41:05;;;;;;;18.70;12.27;;;;;;;19.73;81.42;101097.13;5084641;28;20114;-73
2022/06/30 07:43:30;;;;;;;21.00;12.23;;;;;;;19.89;81.26;101109.03;5080199;28;20161;-72
2022/06/30 07:45:56;;;;;;;19.05;13.00;;;;;;;19.99;79.18;101117.34;5082328;28;20024;-70
2022/06/30 07:48:21;;;;;;;22.15;12.55;;;;;;;19.99;77.46;101106.19;5083368;28;20561;-71
2022/06/30 07:50:46;;;;;;;22.88;11.85;;;;;;;19.98;77.66;101112.06;5083348;28;20020;-71
2022/06/30 07:53:12;;;;;;;17.35;11.45;;;;;;;20.01;78.84;101105.88;5083076;28;20051;-71
2022/06/30 07:55:37;;;;;;;19.42;11.35;;;;;;;20.06;77.01;101108.66;5084964;28;20032;-71
2022/06/30 07:58:02;;;;;;;17.52;10.65;;;;;;;20.06;75.84;101111.44;5088472;28;20759;-73
2022/06/30 08:00:28;;;;;;;20.33;10.35;;;;;;;20.13;74.79;101111.97;5082731;28;20032;-73
2022/06/30 08:02:53;;;;;;;19.25;11.00;;;;;;;20.30;74.64;101104.03;5079851;28;20031;-73
2022/06/30 08:05:18;;;;;;;16.80;10.50;;;;;;;20.34;73.86;101110.69;5085242;28;20493;-74
2022/06/30 08:07:44;;;;;;;12.75;9.23;;;;;;;20.34;74.45;101109.88;5084977;28;20044;-72
2022/06/30 08:10:10;;;;;;;17.45;9.23;;;;;;;20.31;74.18;101111.28;5080912;28;20032;-72
2022/06/30 08:12:35;;;;;;;12.88;8.38;;;;;;;20.34;72.28;101104.28;5085300;28;20463;-73
2022/06/30 08:15:01;;;;;;;17.20;8.57;;;;;;;20.41;71.45;101100.03;5085176;28;20810;-73
2022/06/30 08:17:27;;;;;;;14.07;7.90;;;;;;;20.54;71.75;101104.16;5080570;28;20107;-73
2022/06/30 08:19:53;;;;;;;15.48;8.35;;;;;;;20.63;70.98;101096.84;5081731;28;20031;-72
2022/06/30 08:22:18;;;;;;;15.75;7.20;;;;;;;20.79;70.28;101099.50;5083023;28;20030;-72
2022/06/30 08:24:43;;;;;;;16.10;7.75;;;;;;;20.89;71.54;101091.84;5082052;28;20111;-72
2022/06/30 08:27:09;;;;;;;14.95;7.95;;;;;;;20.97;72.04;101094.00;5084346;28;20032;-73
2022/06/30 08:29:34;;;;;;;14.82;7.95;;;;;;;21.03;72.40;101091.97;5085014;28;20345;-73
2022/06/30 08:32:03;;;;;;;16.15;8.80;;;;;;;21.04;69.06;101092.84;5083118;28;20110;-72
2022/06/30 08:34:28;;;;;;;16.35;7.90;;;;;;;21.21;71.15;101102.41;5085643;28;20032;-72
2022/06/30 08:36:55;;;;;;;15.05;7.85;;;;;;;21.31;69.08;101090.31;5091736;28;21167;-71
2022/06/30 08:42:02;;;;;;;15.40;7.20;;;;;;;21.46;70.52;101092.94;5084553;28;20034;-72
2022/06/30 08:42:19;;;;;;;12.43;6.57;;;;;;;21.65;68.73;101097.75;5080460;28;20093;-72
2022/06/30 08:45:13;;;;;;;13.77;6.35;;;;;;;21.66;66.45;101091.03;5082816;28;20086;-73
2022/06/30 08:47:31;;;;;;;13.70;6.23;;;;;;;21.66;66.19;101091.84;5084291;28;20040;-73
2022/06/30 08:49:57;;;;;;;11.80;6.10;;;;;;;21.66;66.82;101091.84;5082443;28;20300;-73
2022/06/30 08:52:24;;;;;;;15.63;6.32;;;;;;;21.73;66.65;101097.91;5083570;28;20028;-72
2022/06/30 08:54:51;;;;;;;11.52;6.05;;;;;;;21.85;65.85;101097.50;5071397;28;20059;-72
2022/06/30 08:57:17;;;;;;;15.32;6.03;;;;;;;22.18;65.01;101100.41;5078678;28;20108;-73
2022/06/30 08:59:43;;;;;;;11.23;5.95;;;;;;;22.26;63.39;101092.16;5080460;28;20032;-73
2022/06/30 09:02:08;;;;;;;14.95;6.80;;;;;;;22.44;64.21;101095.25;5083473;28;20028;-72
2022/06/30 09:04:34;;;;;;;13.20;6.53;;;;;;;22.32;63.45;101092.09;5093293;28;20511;-71
2022/06/30 09:06:59;;;;;;;12.00;6.18;;;;;;;22.31;63.37;101094.06;5082417;28;20388;-72
2022/06/30 09:09:25;;;;;;;12.73;6.50;;;;;;;22.33;63.71;101099.34;5077216;28;20465;-73
2022/06/30 09:11:51;;;;;;;11.75;5.60;;;;;;;22.40;62.76;101099.78;5082123;28;20099;-71
2022/06/30 09:14:45;;;;;;;14.27;6.00;;;;;;;22.58;63.88;101101.72;5082173;28;20116;-72
2022/06/30 09:17:19;;;;;;;13.10;6.57;;;;;;;22.61;63.01;101098.34;5079283;28;20071;-70
2022/06/30 09:20:02;;;;;;;13.48;5.93;;;;;;;22.76;63.10;101097.25;5081512;28;20386;-70
2022/06/30 09:22:34;;;;;;;11.93;5.30;;;;;;;23.04;62.50;101103.75;5073106;28;20028;-75
2022/06/30 09:25:02;;;;;;;14.80;5.82;;;;;;;23.17;61.70;101102.97;5084081;28;20426;-69
2022/06/30 09:27:30;;;;;;;12.65;6.40;;;;;;;23.41;61.39;101102.75;5087485;28;20024;-69
2022/06/30 09:30:09;;;;;;;10.60;5.03;;;;;;;23.64;59.77;101100.94;5095132;28;20472;-70
2022/06/30 09:33:03;;;;;;;12.13;5.25;;;;;;;23.96;62.25;101104.72;5084919;28;20024;-70
2022/06/30 09:35:30;;;;;;;12.30;5.82;;;;;;;24.07;57.15;101106.97;5074360;28;20115;-70
2022/06/30 09:38:10;;;;;;;11.65;5.50;;;;;;;24.57;58.82;101111.72;5081744;28;20055;-69
2022/06/30 09:41:04;;;;;;;12.95;5.80;;;;;;;25.26;55.02;101106.59;5084157;28;20085;-70
2022/06/30 09:43:34;;;;;;;13.30;5.60;;;;;;;26.02;55.88;101105.53;5081596;28;20023;-71
2022/06/30 09:46:00;;;;;;;11.48;5.47;;;;;;;27.81;50.99;101103.06;5086647;28;20024;-70
2022/06/30 09:48:31;;;;;;;11.82;4.68;;;;;;;29.32;45.71;101119.72;5087813;28;20433;-70
2022/06/30 09:51:01;;;;;;;7.05;4.18;;;;;;;30.27;43.58;101111.94;5080546;28;20387;-71
2022/06/30 09:53:27;;;;;;;11.70;4.55;;;;;;;30.94;40.37;101113.09;5091170;28;20043;-70
2022/06/30 09:55:53;;;;;;;11.35;4.43;;;;;;;30.47;40.00;101107.28;5084754;28;20034;-68
2022/06/30 09:58:30;;;;;;;9.95;4.22;;;;;;;30.85;41.35;101115.28;5085222;28;20028;-67
2022/06/30 10:00:56;;;;;;;8.23;3.85;;;;;;;31.76;38.89;101123.78;5083092;28;20035;-69
2022/06/30 10:03:22;;;;;;;9.80;4.57;;;;;;;31.98;38.18;101121.47;5095544;28;21303;-70
2022/06/30 10:05:49;;;;;;;12.00;4.70;;;;;;;32.26;35.83;101122.16;5091710;28;20122;-69
2022/06/30 10:08:15;;;;;;;10.50;3.90;;;;;;;32.88;37.50;101125.09;5087553;28;20047;-69
2022/06/30 10:10:42;;;;;;;12.40;4.27;;;;;;;33.38;35.92;101125.25;5086090;28;20036;-70
2022/06/30 10:13:16;;;;;;;10.00;5.03;;;;;;;32.83;36.13;101130.28;5078532;28;20100;-69
2022/06/30 10:15:47;;;;;;;11.68;4.10;;;;;;;32.45;38.02;101129.91;5108998;28;20043;-69
2022/06/30 10:18:13;;;;;;;12.48;4.90;;;;;;;32.02;35.75;101128.06;5097114;28;20057;-69
2022/06/30 10:20:40;;;;;;;8.68;3.80;;;;;;;31.80;37.53;101126.72;5085952;28;20035;-69
2022/06/30 10:23:08;;;;;;;9.57;4.28;;;;;;;30.59;40.37;101126.25;5087304;28;20031;-69
2022/06/30 10:25:35;;;;;;;12.90;3.88;;;;;;;29.40;43.69;101135.78;5080230;28;20020;-68
2022/06/30 10:28:01;;;;;;;11.32;4.15;;;;;;;29.25;43.40;101127.97;5088488;28;20395;-68
2022/06/30 10:30:43;;;;;;;9.60;4.03;;;;;;;30.10;42.41;101127.16;5085876;28;20047;-69
2022/06/30 10:33:25;;;;;;;11.63;4.38;;;;;;;31.49;42.47;101110.53;5087682;28;20380;-68
2022/06/30 10:36:05;;;;;;;9.85;4.00;;;;;;;32.43;39.58;101105.88;5088360;28;20024;-68
2022/06/30 10:38:36;;;;;;;11.52;5.00;;;;;;;32.09;36.41;101099.00;5086275;28;20060;-68
2022/06/30 10:41:17;;;;;;;10.25;5.00;;;;;;;32.21;37.60;101107.41;5087877;28;20720;-68
2022/06/30 10:44:04;;;;;;;11.52;5.28;;;;;;;31.57;38.67;101109.50;5086663;28;20020;-68
2022/06/30 10:46:34;;;;;;;10.60;3.90;;;;;;;30.04;40.58;101107.94;5085735;28;20127;-68
2022/06/30 10:49:06;;;;;;;12.25;3.90;;;;;;;29.13;42.71;101108.13;5092163;28;20545;-68
2022/06/30 10:51:31;;;;;;;11.95;4.45;;;;;;;28.87;43.88;101116.84;5106422;28;20049;-68
2022/06/30 10:53:56;;;;;;;16.23;5.13;;;;;;;28.59;45.92;101119.44;5087538;28;20483;-68
2022/06/30 10:56:43;;;;;;;11.63;5.22;;;;;;;28.07;44.87;101108.53;5085414;28;20012;-67
2022/06/30 10:59:13;;;;;;;10.50;4.90;;;;;;;27.90;44.85;101101.03;5079180;28;20043;-68
2022/06/30 11:01:59;;;;;;;10.75;3.97;;;;;;;27.69;47.45;101100.94;5083439;28;20296;-68
2022/06/30 11:04:24;;;;;;;11.63;4.35;;;;;;;27.50;45.99;101092.91;5086935;28;20028;-68
2022/06/30 11:07:01;;;;;;;10.40;3.67;;;;;;;27.67;48.06;101098.44;5086879;28;20038;-67
2022/06/30 11:09:44;;;;;;;13.13;5.20;;;;;;;27.89;46.95;101090.91;5085672;28;20032;-68
2022/06/30 11:12:39;;;;;;;10.60;4.65;;;;;;;27.78;45.69;101092.44;5086523;28;20028;-68
2022/06/30 11:15:04;;;;;;;9.43;3.90;;;;;;;27.62;45.51;101095.00;5085625;28;20492;-68
2022/06/30 11:17:31;;;;;;;13.20;5.35;;;;;;;27.30;46.34;101099.31;5083944;28;20024;-68
2022/06/30 11:20:12;;;;;;;12.60;5.60;;;;;;;27.17;46.76;101106.84;5085580;28;20067;-68
2022/06/30 11:22:38;;;;;;;9.38;3.78;;;;;;;26.89;46.71;101100.72;5084347;28;20467;-68
2022/06/30 11:25:09;;;;;;;12.43;4.07;;;;;;;26.86;49.02;101104.19;5086339;28;20035;-68
2022/06/30 11:27:37;;;;;;;10.05;5.13;;;;;;;27.10;47.30;101098.03;5086686;28;20215;-68